createdAt,value
2023-02-26T00:02:01.433Z,1.20
2023-02-26T00:05:07.558Z,0.70
2023-02-26T00:08:10.074Z,0.97
2023-02-26T00:11:12.680Z,0.80
2023-02-26T00:14:16.245Z,0.83
2023-02-26T00:17:41.073Z,0.90
2023-02-26T00:20:46.427Z,0.83
2023-02-26T00:23:48.605Z,0.80
2023-02-26T00:26:51.571Z,1.00
2023-02-26T00:29:54.719Z,1.07
2023-02-26T00:32:56.993Z,0.63
2023-02-26T00:36:16.878Z,1.10
2023-02-26T00:39:38.907Z,1.23
2023-02-26T00:42:41.187Z,1.20
2023-02-26T00:45:56.766Z,0.97
2023-02-26T00:49:16.550Z,1.20
2023-02-26T00:52:29.723Z,1.37
2023-02-26T00:55:31.996Z,2.20
2023-02-26T00:58:34.228Z,1.30
2023-02-26T01:01:36.271Z,1.03
2023-02-26T01:04:38.935Z,1.40
2023-02-26T01:08:02.792Z,1.30
2023-02-26T01:11:05.284Z,1.90
2023-02-26T01:14:07.516Z,1.90
2023-02-26T01:17:26.333Z,2.03
2023-02-26T01:20:31.818Z,2.27
2023-02-26T01:23:41.066Z,2.10
2023-02-26T01:26:43.204Z,2.73
2023-02-26T01:29:45.370Z,2.90
2023-02-26T01:32:55.916Z,2.37
2023-02-26T01:36:08.795Z,2.00
2023-02-26T01:39:26.245Z,1.83
2023-02-26T01:42:31.014Z,1.80
2023-02-26T01:45:40.079Z,2.37
2023-02-26T01:48:45.380Z,1.93
2023-02-26T01:51:53.658Z,2.07
2023-02-26T01:54:55.659Z,1.80
2023-02-26T01:58:00.201Z,2.00
2023-02-26T02:01:04.096Z,2.17
2023-02-26T02:04:10.910Z,1.90
2023-02-26T02:07:12.967Z,2.40
2023-02-26T02:10:14.935Z,2.20
2023-02-26T02:13:55.483Z,1.63
2023-02-26T02:17:08.006Z,1.73
2023-02-26T02:20:22.275Z,1.50
2023-02-26T02:23:36.149Z,1.27
2023-02-26T02:26:46.214Z,1.70
2023-02-26T02:30:17.848Z,1.30
2023-02-26T02:33:24.621Z,1.70
2023-02-26T02:36:41.953Z,1.37
2023-02-26T02:39:46.511Z,1.20
2023-02-26T02:43:10.844Z,2.10
2023-02-26T02:46:17.288Z,1.87
2023-02-26T02:49:28.136Z,2.07
2023-02-26T02:52:37.268Z,2.50
2023-02-26T02:55:43.894Z,2.50
2023-02-26T02:58:51.827Z,2.87
2023-02-26T03:02:08.156Z,2.40
2023-02-26T03:05:10.545Z,2.67
2023-02-26T03:08:21.707Z,2.40
2023-02-26T03:11:24.250Z,2.47
2023-02-26T03:14:26.899Z,2.53
2023-02-26T03:18:01.047Z,2.77
2023-02-26T03:21:13.239Z,2.13
2023-02-26T03:24:34.229Z,2.40
2023-02-26T03:28:18.246Z,2.50
2023-02-26T03:31:34.218Z,2.53
2023-02-26T03:34:48.206Z,2.57
2023-02-26T03:37:53.228Z,1.83
2023-02-26T03:41:10.804Z,2.63
2023-02-26T03:44:24.763Z,2.20
2023-02-26T03:47:27.254Z,2.30
2023-02-26T03:50:46.324Z,2.70
2023-02-26T03:53:52.850Z,2.73
2023-02-26T03:56:55.091Z,2.57
2023-02-26T03:59:57.205Z,2.13
2023-02-26T04:03:03.128Z,2.60
2023-02-26T04:06:06.014Z,2.70
2023-02-26T04:09:08.221Z,2.77
2023-02-26T04:12:10.442Z,2.57
2023-02-26T04:15:12.828Z,2.53
2023-02-26T04:18:15.129Z,3.00
2023-02-26T04:21:22.455Z,3.33
2023-02-26T04:24:24.356Z,2.60
2023-02-26T04:27:26.354Z,2.97
2023-02-26T04:30:28.440Z,3.20
2023-02-26T04:33:30.422Z,3.53
2023-02-26T04:36:32.292Z,3.10
2023-02-26T04:39:34.286Z,3.27
2023-02-26T04:42:36.174Z,3.63
2023-02-26T04:45:38.179Z,3.60
2023-02-26T04:48:40.275Z,3.60
2023-02-26T04:51:42.233Z,3.33
2023-02-26T04:54:44.068Z,3.23
2023-02-26T04:57:46.134Z,3.90
2023-02-26T05:00:53.797Z,3.50
2023-02-26T05:03:55.770Z,3.70
2023-02-26T05:06:57.726Z,3.77
2023-02-26T05:10:00.208Z,4.27
2023-02-26T05:13:02.301Z,3.90
2023-02-26T05:16:04.641Z,3.77
2023-02-26T05:19:06.580Z,3.63
2023-02-26T05:22:08.583Z,4.13
2023-02-26T05:25:14.659Z,3.33
2023-02-26T05:28:17.083Z,3.87
2023-02-26T05:31:18.974Z,3.00
2023-02-26T05:34:21.169Z,3.80
2023-02-26T05:37:23.099Z,3.53
2023-02-26T05:40:25.454Z,3.83
2023-02-26T05:43:28.381Z,4.50
2023-02-26T05:46:30.543Z,3.67
2023-02-26T05:49:33.125Z,3.57
2023-02-26T05:52:35.150Z,4.07
2023-02-26T05:55:37.186Z,4.00
2023-02-26T05:58:39.130Z,4.17
2023-02-26T06:01:43.199Z,4.27
2023-02-26T06:04:45.308Z,4.07
2023-02-26T06:07:47.812Z,3.77
2023-02-26T06:10:51.884Z,3.77
2023-02-26T06:13:55.175Z,3.83
2023-02-26T06:16:57.064Z,2.67
2023-02-26T06:19:59.181Z,4.73
2023-02-26T06:23:01.065Z,4.47
2023-02-26T06:26:03.207Z,4.20
2023-02-26T06:29:05.140Z,4.57
2023-02-26T06:32:07.865Z,4.97
2023-02-26T06:35:10.667Z,4.50
2023-02-26T06:38:13.719Z,5.47
2023-02-26T06:41:16.050Z,5.17
2023-02-26T06:44:18.130Z,4.60
2023-02-26T06:47:20.075Z,5.30
2023-02-26T06:50:22.116Z,4.03
2023-02-26T06:53:24.056Z,4.50
2023-02-26T06:56:26.279Z,4.70
2023-02-26T06:59:29.102Z,4.97
2023-02-26T07:02:31.126Z,5.17
2023-02-26T07:05:33.295Z,5.27
2023-02-26T07:08:35.809Z,5.07
2023-02-26T07:11:37.824Z,5.20
2023-02-26T07:14:40.536Z,4.87
2023-02-26T07:17:43.106Z,4.23
2023-02-26T07:20:45.481Z,3.83
2023-02-26T07:23:47.490Z,4.67
2023-02-26T07:26:49.726Z,4.20
2023-02-26T07:29:52.307Z,4.13
2023-02-26T07:32:54.245Z,4.57
2023-02-26T07:35:56.834Z,4.90
2023-02-26T07:38:58.742Z,4.60
2023-02-26T07:42:00.760Z,4.80
2023-02-26T07:45:05.183Z,4.97
2023-02-26T07:48:07.866Z,5.50
2023-02-26T07:51:11.305Z,5.07
2023-02-26T07:54:14.331Z,4.73
2023-02-26T07:57:16.282Z,4.67
2023-02-26T08:00:19.870Z,4.10
2023-02-26T08:03:22.130Z,5.10
2023-02-26T08:06:24.614Z,5.23
2023-02-26T08:09:27.153Z,4.43
2023-02-26T08:12:29.256Z,4.00
2023-02-26T08:15:31.537Z,4.37
2023-02-26T08:18:33.517Z,4.67
2023-02-26T08:21:35.563Z,4.13
2023-02-26T08:24:37.857Z,4.30
2023-02-26T08:27:40.187Z,5.20
2023-02-26T08:30:42.204Z,4.23
2023-02-26T08:33:44.798Z,4.33
2023-02-26T08:36:47.108Z,4.17
2023-02-26T08:39:48.961Z,4.73
2023-02-26T08:42:51.114Z,4.10
2023-02-26T08:45:54.235Z,3.93
2023-02-26T08:48:56.219Z,3.60
2023-02-26T08:51:58.278Z,3.83
2023-02-26T08:55:00.181Z,3.93
2023-02-26T08:58:03.881Z,3.30
2023-02-26T09:01:06.070Z,3.60
2023-02-26T09:04:10.377Z,3.07
2023-02-26T09:07:12.819Z,3.53
2023-02-26T09:10:15.482Z,2.90
2023-02-26T09:13:18.056Z,3.50
2023-02-26T09:16:19.934Z,3.73
2023-02-26T09:19:22.046Z,3.20
2023-02-26T09:22:24.980Z,2.60
2023-02-26T09:25:26.915Z,2.90
2023-02-26T09:28:28.740Z,2.80
2023-02-26T09:31:30.877Z,2.50
2023-02-26T09:34:32.805Z,3.60
2023-02-26T09:37:34.933Z,3.13
2023-02-26T09:40:59.659Z,2.97
2023-02-26T09:44:07.979Z,2.77
2023-02-26T09:47:17.001Z,3.27
2023-02-26T09:50:29.271Z,2.80
2023-02-26T09:53:40.685Z,3.40
2023-02-26T09:56:43.546Z,2.87
2023-02-26T09:59:45.412Z,2.50
2023-02-26T10:03:15.041Z,2.97
2023-02-26T10:06:33.261Z,2.23
2023-02-26T10:10:25.390Z,2.60
2023-02-26T10:13:58.133Z,2.40
2023-02-26T10:17:12.296Z,2.30
2023-02-26T10:20:17.210Z,2.23
2023-02-26T10:23:38.021Z,1.97
2023-02-26T10:26:44.669Z,1.90
2023-02-26T10:30:27.064Z,2.30
2023-02-26T10:33:34.948Z,2.63
2023-02-26T10:37:01.988Z,2.97
2023-02-26T10:40:24.217Z,2.73
2023-02-26T10:43:42.563Z,2.60
2023-02-26T10:47:02.268Z,2.87
2023-02-26T10:50:08.909Z,2.57
2023-02-26T10:53:12.627Z,2.87
2023-02-26T10:56:18.979Z,2.53
2023-02-26T10:59:20.873Z,2.37
2023-02-26T11:02:35.160Z,2.23
2023-02-26T11:05:37.129Z,2.20
2023-02-26T11:08:51.331Z,2.13
2023-02-26T11:11:56.739Z,2.60
2023-02-26T11:15:01.765Z,2.20
2023-02-26T11:18:04.505Z,2.43
2023-02-26T11:21:07.409Z,2.00
2023-02-26T11:24:13.397Z,2.47
2023-02-26T11:27:19.998Z,1.80
2023-02-26T11:30:22.829Z,2.20
2023-02-26T11:33:29.426Z,2.23
2023-02-26T11:36:33.520Z,2.33
2023-02-26T11:43:02.974Z,1.73
2023-02-26T11:46:06.344Z,1.90
2023-02-26T11:49:10.628Z,1.90
2023-02-26T11:52:23.277Z,2.03
2023-02-26T11:55:34.533Z,1.80
2023-02-26T11:58:38.796Z,1.43
2023-02-26T12:01:43.618Z,1.60
2023-02-26T12:04:46.719Z,1.43
2023-02-26T12:07:49.222Z,2.00
2023-02-26T12:11:25.654Z,1.77
2023-02-26T12:14:35.402Z,1.57
2023-02-26T12:18:21.348Z,1.60
2023-02-26T12:21:46.534Z,1.33
2023-02-26T12:25:07.043Z,1.47
2023-02-26T12:28:29.958Z,1.40
2023-02-26T12:31:38.587Z,1.60
2023-02-26T12:35:22.389Z,2.27
2023-02-26T12:38:42.787Z,2.47
2023-02-26T12:42:04.394Z,2.20
2023-02-26T12:45:28.191Z,2.13
2023-02-26T12:48:42.082Z,2.70
2023-02-26T12:52:12.860Z,2.53
2023-02-26T12:55:25.093Z,1.90
2023-02-26T12:58:35.777Z,2.07
2023-02-26T13:02:01.029Z,2.20
2023-02-26T13:05:37.080Z,2.20
2023-02-26T13:08:43.915Z,2.13
2023-02-26T13:12:38.217Z,2.40
2023-02-26T13:16:07.817Z,2.50
2023-02-26T13:19:31.293Z,2.37
2023-02-26T13:22:37.523Z,3.10
2023-02-26T13:25:51.366Z,2.93
2023-02-26T13:28:56.231Z,3.20
2023-02-26T13:32:02.252Z,3.10
2023-02-26T13:35:08.449Z,6.37
2023-02-26T13:38:23.725Z,4.07
2023-02-26T13:41:40.774Z,2.77
2023-02-26T13:45:19.414Z,5.00
2023-02-26T13:48:28.987Z,2.53
2023-02-26T13:51:46.780Z,3.47
2023-02-26T13:54:50.116Z,3.27
2023-02-26T13:57:52.688Z,3.00
2023-02-26T14:00:59.117Z,2.30
2023-02-26T14:04:33.596Z,2.80
2023-02-26T14:08:09.831Z,1.80
2023-02-26T14:11:17.864Z,2.10
2023-02-26T14:14:26.885Z,2.10
2023-02-26T14:17:34.849Z,1.53
2023-02-26T14:20:37.254Z,1.97
2023-02-26T14:23:40.524Z,2.20
2023-02-26T14:26:49.576Z,2.47
2023-02-26T14:29:57.293Z,3.13
2023-02-26T14:32:59.489Z,1.87
2023-02-26T14:36:02.001Z,2.23
2023-02-26T14:39:07.015Z,2.17
2023-02-26T14:42:22.762Z,1.40
2023-02-26T14:45:31.157Z,1.00
2023-02-26T14:48:33.675Z,0.93
2023-02-26T14:51:42.011Z,0.70
2023-02-26T14:55:09.576Z,1.00
2023-02-26T14:58:17.612Z,1.10
2023-02-26T15:01:40.611Z,1.20
2023-02-26T15:05:11.903Z,1.50
2023-02-26T15:08:44.380Z,1.33
2023-02-26T15:12:37.791Z,1.30
2023-02-26T15:15:53.395Z,1.40
2023-02-26T15:19:20.214Z,1.20
2023-02-26T15:22:36.279Z,1.27
2023-02-26T15:25:43.616Z,1.03
2023-02-26T15:28:46.186Z,1.30
2023-02-26T15:31:55.768Z,1.50
2023-02-26T15:35:24.642Z,1.10
2023-02-26T15:38:27.481Z,1.23
2023-02-26T15:41:31.473Z,1.40
2023-02-26T15:44:33.961Z,1.70
2023-02-26T15:47:36.048Z,1.33
2023-02-26T15:50:44.741Z,1.67
2023-02-26T15:53:51.717Z,2.00
2023-02-26T15:56:53.923Z,1.67
2023-02-26T16:00:07.654Z,1.50
2023-02-26T16:07:21.598Z,1.50
2023-02-26T16:10:57.544Z,1.40
2023-02-26T16:13:59.817Z,1.67
2023-02-26T16:17:02.498Z,2.03
2023-02-26T16:20:09.067Z,1.27
2023-02-26T16:23:24.058Z,1.20
2023-02-26T16:26:38.959Z,1.30
2023-02-26T16:29:52.518Z,2.20
2023-02-26T16:33:06.751Z,1.60
2023-02-26T16:36:14.568Z,1.33
2023-02-26T16:39:22.016Z,1.77
2023-02-26T16:42:51.662Z,1.20
2023-02-26T16:45:57.871Z,1.40
2023-02-26T16:49:04.339Z,1.70
2023-02-26T16:52:06.215Z,2.17
2023-02-26T16:55:12.994Z,2.80
2023-02-26T16:58:15.916Z,2.50
2023-02-26T17:01:19.440Z,1.63
2023-02-26T17:04:29.226Z,1.80
2023-02-26T17:07:52.110Z,1.30
2023-02-26T17:11:01.247Z,1.30
2023-02-26T17:14:11.861Z,1.50
2023-02-26T17:17:14.322Z,1.17
2023-02-26T17:20:16.875Z,1.70
2023-02-26T17:23:19.468Z,1.30
2023-02-26T17:26:21.738Z,1.30
2023-02-26T17:29:31.905Z,1.10
2023-02-26T17:32:35.494Z,1.37
2023-02-26T17:35:37.443Z,2.10
2023-02-26T17:38:39.751Z,1.70
2023-02-26T17:41:45.689Z,1.53
2023-02-26T17:44:48.849Z,2.20
2023-02-26T17:47:50.907Z,1.90
2023-02-26T17:50:55.709Z,2.30
2023-02-26T17:53:57.722Z,2.03
2023-02-26T17:56:59.949Z,2.60
2023-02-26T18:00:01.861Z,2.77
2023-02-26T18:03:05.230Z,2.10
2023-02-26T18:06:08.004Z,2.10
2023-02-26T18:09:12.531Z,1.80
2023-02-26T18:12:16.786Z,2.50
2023-02-26T18:15:19.114Z,2.93
2023-02-26T18:18:22.196Z,2.73
2023-02-26T18:21:26.114Z,2.73
2023-02-26T18:24:28.354Z,2.70
2023-02-26T18:27:30.619Z,3.03
2023-02-26T18:30:36.671Z,2.87
2023-02-26T18:33:40.942Z,2.80
2023-02-26T18:36:42.941Z,2.10
2023-02-26T18:39:45.455Z,2.23
2023-02-26T18:42:47.367Z,2.83
2023-02-26T18:45:50.976Z,3.27
2023-02-26T18:48:53.713Z,2.80
2023-02-26T18:51:55.757Z,2.70
2023-02-26T18:54:57.721Z,2.83
2023-02-26T18:58:00.164Z,2.70
2023-02-26T19:01:05.191Z,3.10
2023-02-26T19:04:08.484Z,2.77
2023-02-26T19:07:14.483Z,3.03
2023-02-26T19:10:17.408Z,2.80
2023-02-26T19:13:19.590Z,2.73
2023-02-26T19:16:23.092Z,2.50
2023-02-26T19:19:25.026Z,2.70
2023-02-26T19:22:27.088Z,2.93
2023-02-26T19:25:31.187Z,2.83
2023-02-26T19:28:33.239Z,3.40
2023-02-26T19:31:36.692Z,3.20
2023-02-26T19:34:39.403Z,2.93
2023-02-26T19:37:41.957Z,3.20
2023-02-26T19:40:43.979Z,3.03
2023-02-26T19:43:49.200Z,3.00
2023-02-26T19:46:51.928Z,2.60
2023-02-26T19:49:53.895Z,2.93
2023-02-26T19:52:56.745Z,2.60
2023-02-26T19:55:58.823Z,2.63
2023-02-26T19:59:00.776Z,2.50
2023-02-26T20:02:03.247Z,2.87
2023-02-26T20:05:06.085Z,2.67
2023-02-26T20:08:10.696Z,2.60
2023-02-26T20:11:13.384Z,2.53
2023-02-26T20:14:15.795Z,3.00
2023-02-26T20:17:18.027Z,2.50
2023-02-26T20:20:20.579Z,2.80
2023-02-26T20:23:22.788Z,2.53
2023-02-26T20:26:24.862Z,2.60
2023-02-26T20:29:26.887Z,2.40
2023-02-26T20:32:29.184Z,2.40
2023-02-26T20:35:31.666Z,2.33
2023-02-26T20:38:34.090Z,3.00
2023-02-26T20:41:36.425Z,2.63
2023-02-26T20:44:38.399Z,2.67
2023-02-26T20:47:40.338Z,2.77
2023-02-26T20:50:42.301Z,2.70
2023-02-26T20:53:46.095Z,3.10
2023-02-26T20:56:49.029Z,2.93
2023-02-26T20:59:51.910Z,2.47
2023-02-26T21:02:54.142Z,2.50
2023-02-26T21:05:56.243Z,2.77
2023-02-26T21:08:59.532Z,3.23
2023-02-26T21:12:01.472Z,3.17
2023-02-26T21:15:05.547Z,2.27
2023-02-26T21:18:07.732Z,3.00
2023-02-26T21:21:09.696Z,5.40
2023-02-26T21:24:12.358Z,5.80
2023-02-26T21:27:14.457Z,5.87
2023-02-26T21:30:17.854Z,4.43
2023-02-26T21:33:20.219Z,3.63
2023-02-26T21:36:22.846Z,3.30
2023-02-26T21:39:24.884Z,3.40
2023-02-26T21:42:27.472Z,3.20
2023-02-26T21:45:29.563Z,3.33
2023-02-26T21:48:31.700Z,3.33
2023-02-26T21:51:36.350Z,3.50
2023-02-26T21:54:38.490Z,3.30
2023-02-26T21:57:40.489Z,4.20
2023-02-26T22:00:42.496Z,4.13
2023-02-26T22:03:45.081Z,3.33
2023-02-26T22:06:47.067Z,2.93
2023-02-26T22:09:49.225Z,3.13
2023-02-26T22:12:51.331Z,2.93
2023-02-26T22:15:53.245Z,2.93
2023-02-26T22:18:55.391Z,3.20
2023-02-26T22:21:57.540Z,3.30
2023-02-26T22:24:59.827Z,3.10
2023-02-26T22:28:01.786Z,3.07
2023-02-26T22:31:03.951Z,3.57
2023-02-26T22:34:05.956Z,3.73
2023-02-26T22:37:08.583Z,3.70
2023-02-26T22:40:13.139Z,3.50
2023-02-26T22:43:15.558Z,3.23
2023-02-26T22:46:19.093Z,3.10
2023-02-26T22:49:21.106Z,3.27
2023-02-26T22:52:23.148Z,3.53
2023-02-26T22:55:25.532Z,3.23
2023-02-26T22:58:28.916Z,3.40
2023-02-26T23:01:31.058Z,3.20
2023-02-26T23:04:32.923Z,3.53
2023-02-26T23:07:35.622Z,3.50
2023-02-26T23:10:37.513Z,3.40
2023-02-26T23:13:39.882Z,2.90
2023-02-26T23:16:42.011Z,2.87
2023-02-26T23:19:44.068Z,3.30
2023-02-26T23:22:46.135Z,3.20
2023-02-26T23:25:48.538Z,3.27
2023-02-26T23:28:50.458Z,2.87
2023-02-26T23:31:52.678Z,2.50
2023-02-26T23:34:55.768Z,2.93
2023-02-26T23:37:58.145Z,2.87
2023-02-26T23:41:00.112Z,2.93
2023-02-26T23:44:02.942Z,1.90
2023-02-26T23:47:04.895Z,2.93
2023-02-26T23:50:07.769Z,2.53
2023-02-26T23:53:09.700Z,3.00
2023-02-26T23:56:11.633Z,2.47
2023-02-26T23:59:13.855Z,2.80
